Terminal Aerodrome Forecast
Issued by NWS

Home | Current Version | Previous Version | Text Only | Print | Product List | Glossary On
Versions: 1 2 3 4 5 6 7 8 9 10 11 12 13 14 15 16 17 18 19 20 21
000
FTUS42 KMHX 051905 AAA
TAFISO
TAF AMD
KISO 051905Z 0519/0618 01013G20KT 4SM -SHRA OVC007
     FM052100 01015G25KT 2SM -RA OVC007
     FM060000 01016G23KT 3SM -FZRAPL OVC007
     FM060600 01015G23KT P6SM OVC015
     FM061200 01010KT P6SM OVC100
      AMD LTD TO CLD VIS AND WIND=

USA.gov is the U.S. government's official web portal to all federal, state and local government web resources and services.